createdAt,value
2018-12-31T00:00:48.366Z,16.20
2018-12-31T00:01:48.364Z,17.60
2018-12-31T00:02:48.363Z,19.20
2018-12-31T00:03:48.332Z,18.50
2018-12-31T00:04:48.335Z,17.60
2018-12-31T00:05:48.309Z,18.20
2018-12-31T00:06:48.295Z,20.20
2018-12-31T00:07:48.294Z,17.30
2018-12-31T00:08:48.280Z,18.00
2018-12-31T00:09:48.276Z,16.60
2018-12-31T00:10:48.247Z,19.10
2018-12-31T00:11:48.243Z,19.20
2018-12-31T00:12:48.243Z,17.00
2018-12-31T00:13:48.221Z,18.90
2018-12-31T00:14:48.228Z,21.40
2018-12-31T00:15:48.191Z,16.00
2018-12-31T00:16:48.191Z,16.60
2018-12-31T00:17:48.173Z,20.60
2018-12-31T00:18:48.162Z,17.70
2018-12-31T00:19:48.176Z,19.20
2018-12-31T00:20:48.127Z,19.60
2018-12-31T00:21:48.146Z,18.50
2018-12-31T00:22:48.119Z,15.20
2018-12-31T00:23:48.110Z,20.30
2018-12-31T00:24:48.125Z,15.90
2018-12-31T00:25:48.086Z,18.90
2018-12-31T00:26:48.067Z,20.60
2018-12-31T00:27:48.064Z,19.60
2018-12-31T00:28:48.049Z,15.70
2018-12-31T00:29:48.066Z,19.70
2018-12-31T00:30:48.050Z,15.80
2018-12-31T00:31:48.024Z,17.70
2018-12-31T00:32:47.996Z,17.30
2018-12-31T00:33:47.990Z,14.00
2018-12-31T00:34:47.982Z,19.60
2018-12-31T00:35:47.986Z,15.80
2018-12-31T00:36:47.952Z,14.80
2018-12-31T00:37:47.938Z,19.40
2018-12-31T00:38:47.934Z,15.50
2018-12-31T00:39:47.931Z,16.20
2018-12-31T00:40:47.936Z,17.80
2018-12-31T00:41:47.918Z,16.80
2018-12-31T00:42:47.904Z,14.70
2018-12-31T00:43:47.880Z,15.30
2018-12-31T00:44:47.873Z,15.10
2018-12-31T00:45:47.883Z,19.20
2018-12-31T00:46:47.848Z,16.20
2018-12-31T00:47:47.860Z,19.70
2018-12-31T00:48:47.825Z,20.10
2018-12-31T00:49:47.819Z,18.30
2018-12-31T00:50:47.821Z,21.60
2018-12-31T00:51:47.792Z,21.80
2018-12-31T00:52:47.776Z,19.90
2018-12-31T00:53:47.769Z,17.30
2018-12-31T00:54:47.778Z,16.40
2018-12-31T00:55:47.781Z,15.80
2018-12-31T00:56:47.739Z,17.90
2018-12-31T00:57:47.729Z,19.70
2018-12-31T00:58:47.711Z,16.90
2018-12-31T00:59:47.709Z,16.60
2018-12-31T01:00:47.686Z,19.40
2018-12-31T01:01:47.697Z,17.10
2018-12-31T01:02:47.662Z,24.70
2018-12-31T01:03:47.672Z,19.80
2018-12-31T01:04:47.633Z,19.30
2018-12-31T01:05:47.627Z,18.50
2018-12-31T01:06:47.643Z,12.70
2018-12-31T01:07:47.617Z,20.80
2018-12-31T01:08:47.603Z,21.40
2018-12-31T01:09:47.581Z,16.90
2018-12-31T01:10:47.571Z,17.00
2018-12-31T01:11:47.573Z,18.10
2018-12-31T01:12:47.552Z,16.20
2018-12-31T01:13:47.558Z,19.80
2018-12-31T01:14:47.539Z,18.40
2018-12-31T01:15:47.540Z,21.90
2018-12-31T01:16:47.512Z,20.80
2018-12-31T01:17:47.582Z,19.40
2018-12-31T01:18:47.484Z,17.00
2018-12-31T01:19:47.480Z,21.00
2018-12-31T01:20:47.464Z,20.10
2018-12-31T01:21:47.501Z,18.80
2018-12-31T01:22:47.433Z,17.60
2018-12-31T01:23:47.442Z,17.20
2018-12-31T01:24:47.426Z,18.60
2018-12-31T01:25:47.415Z,17.50
2018-12-31T01:26:47.419Z,18.10
2018-12-31T01:27:47.390Z,19.60
2018-12-31T01:28:47.370Z,19.20
2018-12-31T01:29:47.366Z,23.10
2018-12-31T01:30:47.352Z,20.40
2018-12-31T01:31:47.364Z,19.00
2018-12-31T01:32:47.318Z,17.50
2018-12-31T01:33:47.318Z,18.70
2018-12-31T01:34:47.305Z,15.80
2018-12-31T01:35:47.303Z,19.00
2018-12-31T01:36:47.293Z,17.00
2018-12-31T01:37:47.287Z,21.40
2018-12-31T01:38:47.267Z,18.40
2018-12-31T01:39:47.249Z,21.00
2018-12-31T01:40:47.254Z,21.20
2018-12-31T01:41:47.236Z,16.10
2018-12-31T01:42:47.219Z,22.40
2018-12-31T01:43:47.205Z,16.60
2018-12-31T01:44:47.270Z,16.20
2018-12-31T01:45:47.194Z,17.50
2018-12-31T01:46:47.186Z,24.40
2018-12-31T01:47:47.159Z,19.90
2018-12-31T01:48:47.163Z,18.10
2018-12-31T01:49:47.138Z,20.90
2018-12-31T01:50:47.136Z,16.90
2018-12-31T01:51:47.153Z,21.10
2018-12-31T01:52:47.097Z,17.60
2018-12-31T01:53:47.084Z,22.40
2018-12-31T01:54:47.082Z,19.00
2018-12-31T01:55:47.066Z,20.20
2018-12-31T01:56:47.060Z,21.10
2018-12-31T01:57:47.063Z,17.00
2018-12-31T01:58:47.034Z,20.10
2018-12-31T01:59:47.025Z,23.40
2018-12-31T02:00:47.014Z,21.40
2018-12-31T02:01:47.051Z,15.80
2018-12-31T02:02:47.014Z,21.90
2018-12-31T02:03:46.987Z,19.90
2018-12-31T02:04:46.967Z,21.30
2018-12-31T02:05:46.952Z,13.30
2018-12-31T02:06:46.979Z,23.80
2018-12-31T02:07:46.973Z,16.60
2018-12-31T02:08:46.916Z,18.90
2018-12-31T02:09:46.921Z,19.50
2018-12-31T02:10:46.898Z,17.00
2018-12-31T02:11:46.900Z,22.00
2018-12-31T02:12:46.898Z,18.90
2018-12-31T02:13:46.871Z,20.70
2018-12-31T02:14:46.848Z,18.10
2018-12-31T02:15:46.842Z,19.80
2018-12-31T02:16:46.831Z,22.60
2018-12-31T02:17:46.829Z,22.90
2018-12-31T02:18:46.808Z,16.80
2018-12-31T02:19:46.789Z,18.60
2018-12-31T02:20:46.784Z,21.10
2018-12-31T02:21:46.762Z,18.20
2018-12-31T02:22:46.798Z,17.30
2018-12-31T02:23:46.759Z,21.60
2018-12-31T02:24:46.733Z,16.50
2018-12-31T02:25:46.719Z,21.80
2018-12-31T02:26:46.722Z,16.40
2018-12-31T02:27:46.697Z,20.00
2018-12-31T02:28:46.703Z,19.80
2018-12-31T02:29:46.680Z,15.40
2018-12-31T02:30:46.672Z,20.30
2018-12-31T02:31:46.662Z,17.40
2018-12-31T02:32:46.653Z,18.30
2018-12-31T02:33:46.658Z,21.20
2018-12-31T02:34:46.639Z,18.90
2018-12-31T02:35:46.621Z,20.90
2018-12-31T02:36:46.597Z,18.70
2018-12-31T02:37:46.596Z,22.00
2018-12-31T02:38:46.595Z,19.90
2018-12-31T02:39:46.582Z,19.90
2018-12-31T02:40:46.558Z,18.00
2018-12-31T02:41:46.568Z,20.00
2018-12-31T02:42:46.550Z,19.10
2018-12-31T02:43:46.542Z,26.30
2018-12-31T02:44:46.513Z,15.80
2018-12-31T02:45:46.511Z,14.90
2018-12-31T02:46:46.502Z,16.70
2018-12-31T02:47:46.481Z,16.40
2018-12-31T02:48:46.497Z,18.20
2018-12-31T02:49:46.463Z,20.40
2018-12-31T02:50:46.441Z,17.50
2018-12-31T02:51:46.444Z,20.00
2018-12-31T02:52:46.429Z,14.40
2018-12-31T02:53:47.662Z,22.50
2018-12-31T02:54:46.405Z,20.60
2018-12-31T02:55:46.395Z,23.00
2018-12-31T02:56:46.405Z,21.40
2018-12-31T02:57:46.379Z,19.90
2018-12-31T02:58:46.390Z,19.90
2018-12-31T02:59:46.361Z,18.90
2018-12-31T03:00:46.326Z,20.60
2018-12-31T03:01:46.341Z,22.70
2018-12-31T03:02:46.317Z,20.40
2018-12-31T03:03:46.317Z,21.60
2018-12-31T03:04:46.286Z,18.30
2018-12-31T03:05:46.291Z,14.90
2018-12-31T03:06:46.264Z,18.90
2018-12-31T03:07:46.247Z,21.60
2018-12-31T03:08:46.258Z,17.10
2018-12-31T03:09:46.243Z,20.70
2018-12-31T03:10:46.229Z,21.40
2018-12-31T03:11:46.232Z,25.80
2018-12-31T03:12:46.215Z,18.20
2018-12-31T03:13:46.223Z,21.10
2018-12-31T03:14:46.187Z,18.40
2018-12-31T03:15:46.183Z,23.10
2018-12-31T03:16:46.163Z,22.50
2018-12-31T03:17:46.228Z,22.90
2018-12-31T03:18:46.177Z,21.60
2018-12-31T03:19:46.128Z,22.00
2018-12-31T03:20:46.123Z,24.70
2018-12-31T03:21:46.108Z,22.80
2018-12-31T03:22:46.086Z,24.90
2018-12-31T03:23:46.085Z,18.20
2018-12-31T03:24:46.082Z,23.20
2018-12-31T03:25:46.065Z,18.00
2018-12-31T03:26:46.046Z,23.10
2018-12-31T03:27:46.043Z,21.70
2018-12-31T03:28:46.015Z,19.50
2018-12-31T03:29:46.047Z,26.00
2018-12-31T03:30:46.007Z,22.30
2018-12-31T03:31:46.340Z,23.80
2018-12-31T03:32:45.981Z,22.00
2018-12-31T03:33:45.979Z,18.70
2018-12-31T03:34:45.972Z,20.10
2018-12-31T03:35:45.959Z,23.30
2018-12-31T03:36:45.930Z,20.10
2018-12-31T03:37:45.935Z,19.40
2018-12-31T03:38:45.915Z,18.80
2018-12-31T03:39:45.917Z,19.30
2018-12-31T03:40:45.888Z,26.40
2018-12-31T03:41:45.874Z,22.80
2018-12-31T03:42:45.869Z,26.40
2018-12-31T03:43:45.856Z,21.00
2018-12-31T03:44:45.868Z,19.80
2018-12-31T03:45:45.832Z,22.90
2018-12-31T03:46:45.827Z,19.70
2018-12-31T03:47:45.811Z,28.60
2018-12-31T03:48:45.803Z,26.20
2018-12-31T03:49:45.805Z,24.80
2018-12-31T03:50:45.774Z,26.70
2018-12-31T03:51:45.762Z,21.40
2018-12-31T03:52:45.763Z,22.20
2018-12-31T03:53:45.748Z,21.70
2018-12-31T03:54:45.748Z,21.80
2018-12-31T03:55:45.806Z,23.80
2018-12-31T03:56:45.711Z,20.30
2018-12-31T03:57:45.692Z,24.00
2018-12-31T03:58:45.695Z,19.30
2018-12-31T03:59:45.687Z,16.80
2018-12-31T04:00:45.670Z,20.90
2018-12-31T04:01:45.670Z,20.20
2018-12-31T04:02:46.971Z,23.90
2018-12-31T04:03:45.627Z,22.20
2018-12-31T04:04:45.645Z,21.70
2018-12-31T04:05:45.617Z,22.00
2018-12-31T04:06:45.588Z,25.70
2018-12-31T04:07:52.758Z,20.30
2018-12-31T04:08:46.584Z,20.50
2018-12-31T04:09:45.573Z,23.60
2018-12-31T04:10:45.573Z,23.90
2018-12-31T04:11:45.541Z,20.50
2018-12-31T04:12:45.532Z,24.00
2018-12-31T04:13:45.510Z,23.00
2018-12-31T04:14:45.506Z,19.70
2018-12-31T04:15:45.510Z,20.00
2018-12-31T04:16:45.493Z,19.90
2018-12-31T04:17:45.475Z,20.30
2018-12-31T04:18:45.464Z,19.90
2018-12-31T04:19:45.451Z,22.10
2018-12-31T04:20:45.457Z,22.90
2018-12-31T04:21:45.425Z,22.10
2018-12-31T04:22:45.432Z,21.80
2018-12-31T04:23:45.394Z,20.30
2018-12-31T04:24:45.394Z,26.00
2018-12-31T04:25:45.403Z,22.50
2018-12-31T04:26:45.378Z,22.50
2018-12-31T04:27:45.355Z,26.10
2018-12-31T04:28:45.359Z,22.00
2018-12-31T04:29:45.333Z,24.80
2018-12-31T04:30:45.338Z,23.30
2018-12-31T04:31:45.309Z,25.30
2018-12-31T04:32:45.309Z,21.90
2018-12-31T04:33:45.291Z,21.40
2018-12-31T04:34:45.269Z,17.50
2018-12-31T04:35:45.271Z,22.30
2018-12-31T04:36:45.270Z,18.90
2018-12-31T04:37:45.245Z,17.90
2018-12-31T04:38:45.228Z,20.40
2018-12-31T04:39:45.225Z,20.90
2018-12-31T04:40:45.232Z,20.90
2018-12-31T04:41:45.203Z,26.00
2018-12-31T04:42:45.209Z,22.50
2018-12-31T04:43:45.184Z,23.10
2018-12-31T04:44:45.169Z,22.10
2018-12-31T04:45:45.167Z,20.90
2018-12-31T04:46:45.160Z,20.00
2018-12-31T04:47:45.137Z,21.80
2018-12-31T04:48:45.122Z,25.00
2018-12-31T04:49:45.110Z,20.70
2018-12-31T04:50:45.120Z,21.50
2018-12-31T04:51:45.107Z,22.30
2018-12-31T04:52:45.077Z,21.90
2018-12-31T04:53:45.074Z,19.60
2018-12-31T04:54:45.059Z,25.20
2018-12-31T04:55:45.051Z,19.30
2018-12-31T04:56:45.066Z,19.50
2018-12-31T04:57:45.034Z,23.30
2018-12-31T04:58:45.016Z,19.50
2018-12-31T04:59:45.018Z,19.50
2018-12-31T05:00:44.989Z,20.20
2018-12-31T05:01:44.994Z,19.10
2018-12-31T05:02:44.975Z,23.70
2018-12-31T05:03:44.949Z,22.00
2018-12-31T05:04:44.943Z,16.10
2018-12-31T05:05:44.938Z,19.50
2018-12-31T05:06:44.953Z,19.30
2018-12-31T05:07:44.912Z,22.40
2018-12-31T05:08:44.910Z,19.70
2018-12-31T05:09:44.891Z,21.50
2018-12-31T05:10:44.878Z,22.60
2018-12-31T05:11:44.882Z,22.40
2018-12-31T05:12:44.861Z,18.90
2018-12-31T05:13:44.844Z,18.10
2018-12-31T05:14:44.835Z,20.40
2018-12-31T05:15:44.824Z,20.00
2018-12-31T05:16:44.825Z,16.80
2018-12-31T05:17:44.795Z,20.30
2018-12-31T05:18:44.789Z,17.90
2018-12-31T05:19:44.771Z,21.30
2018-12-31T05:20:44.787Z,17.30
2018-12-31T05:21:44.788Z,23.30
2018-12-31T05:22:44.742Z,22.60
2018-12-31T05:23:44.726Z,21.20
2018-12-31T05:24:44.729Z,21.00
2018-12-31T05:25:44.704Z,17.00
2018-12-31T05:26:44.721Z,20.50
2018-12-31T05:27:44.686Z,22.10
2018-12-31T05:28:44.674Z,20.70
2018-12-31T05:29:44.672Z,22.70
2018-12-31T05:30:44.650Z,21.40
2018-12-31T05:31:44.672Z,22.20
2018-12-31T05:32:44.627Z,22.90
2018-12-31T05:33:44.624Z,21.60
2018-12-31T05:34:44.618Z,23.20
2018-12-31T05:35:44.592Z,21.90
2018-12-31T05:36:44.585Z,22.90
2018-12-31T05:37:44.590Z,24.00
2018-12-31T05:38:44.566Z,21.40
2018-12-31T05:39:44.556Z,23.30
2018-12-31T05:40:44.661Z,19.30
2018-12-31T05:41:44.521Z,18.90
2018-12-31T05:42:44.534Z,20.60
2018-12-31T05:43:44.494Z,20.60
2018-12-31T05:44:44.497Z,20.50
2018-12-31T05:45:44.476Z,25.00
2018-12-31T05:46:44.468Z,23.20
2018-12-31T05:47:44.500Z,20.30
2018-12-31T05:48:44.445Z,20.90
2018-12-31T05:49:44.453Z,25.00
2018-12-31T05:50:44.429Z,22.50
2018-12-31T05:51:44.431Z,22.90
2018-12-31T05:52:44.430Z,21.90
2018-12-31T05:53:44.392Z,23.90
2018-12-31T05:54:44.390Z,24.40
2018-12-31T05:55:44.408Z,21.70
2018-12-31T05:56:44.376Z,20.30
2018-12-31T05:57:44.357Z,24.00
2018-12-31T05:58:44.343Z,21.10
2018-12-31T05:59:44.335Z,20.00
2018-12-31T06:00:44.332Z,22.90
2018-12-31T06:01:44.325Z,18.60
2018-12-31T06:02:44.317Z,21.00
2018-12-31T06:03:44.289Z,18.80
2018-12-31T06:04:44.263Z,19.40
2018-12-31T06:05:44.277Z,20.00
2018-12-31T06:06:44.245Z,20.90
2018-12-31T06:07:44.245Z,21.30
2018-12-31T06:08:44.232Z,20.50
2018-12-31T06:09:44.221Z,26.00
2018-12-31T06:10:44.201Z,21.10
2018-12-31T06:11:44.185Z,20.50
2018-12-31T06:12:44.211Z,19.10
2018-12-31T06:13:44.177Z,19.80
2018-12-31T06:14:44.164Z,19.20
2018-12-31T06:15:44.160Z,20.70
2018-12-31T06:16:44.149Z,20.70
2018-12-31T06:17:44.148Z,21.20
2018-12-31T06:18:44.113Z,20.30
2018-12-31T06:19:44.106Z,18.70
2018-12-31T06:20:44.097Z,20.80
2018-12-31T06:21:44.075Z,18.10
2018-12-31T06:22:44.103Z,18.30
2018-12-31T06:23:44.051Z,20.50
2018-12-31T06:24:44.055Z,24.30
2018-12-31T06:25:44.033Z,23.10
2018-12-31T06:26:44.029Z,19.30
2018-12-31T06:27:44.012Z,22.90
2018-12-31T06:28:44.013Z,22.40
2018-12-31T06:29:43.981Z,20.50
2018-12-31T06:30:43.985Z,20.20
2018-12-31T06:31:43.960Z,20.60
2018-12-31T06:32:43.965Z,21.70
2018-12-31T06:33:43.975Z,21.70
2018-12-31T06:34:43.937Z,23.40
2018-12-31T06:35:43.925Z,23.10
2018-12-31T06:36:43.990Z,22.30
2018-12-31T06:37:43.900Z,19.70
2018-12-31T06:38:43.897Z,20.00
2018-12-31T06:39:43.879Z,24.30
2018-12-31T06:40:43.876Z,22.20
2018-12-31T06:41:43.849Z,22.10
2018-12-31T06:42:43.851Z,20.10
2018-12-31T06:43:43.841Z,23.40
2018-12-31T06:44:43.815Z,23.20
2018-12-31T06:45:43.821Z,25.20
2018-12-31T06:46:43.812Z,22.80
2018-12-31T06:47:43.799Z,21.60
2018-12-31T06:48:43.798Z,22.50
2018-12-31T06:49:43.776Z,27.00
2018-12-31T06:50:43.755Z,28.30
2018-12-31T06:51:43.750Z,28.80
2018-12-31T06:52:43.734Z,25.40
2018-12-31T06:53:43.736Z,21.00
2018-12-31T06:54:43.712Z,24.00
2018-12-31T06:55:43.708Z,23.70
2018-12-31T06:56:43.688Z,23.60
2018-12-31T06:57:43.688Z,22.60
2018-12-31T06:58:43.707Z,23.60
2018-12-31T06:59:43.665Z,28.10
2018-12-31T07:00:43.649Z,28.00
2018-12-31T07:01:43.695Z,25.50
2018-12-31T07:02:43.624Z,25.00
2018-12-31T07:03:43.618Z,30.00
2018-12-31T07:04:43.616Z,23.20
2018-12-31T07:05:43.583Z,26.00
2018-12-31T07:06:43.585Z,22.10
2018-12-31T07:07:43.572Z,26.30
2018-12-31T07:08:43.557Z,26.80
2018-12-31T07:09:43.554Z,28.80
2018-12-31T07:10:43.531Z,28.10
2018-12-31T07:11:43.522Z,25.70
2018-12-31T07:12:43.523Z,25.60
2018-12-31T07:13:43.501Z,31.60
2018-12-31T07:14:43.506Z,28.10
2018-12-31T07:15:43.487Z,25.60
2018-12-31T07:16:43.466Z,25.10
2018-12-31T07:17:43.453Z,25.60
2018-12-31T07:18:43.460Z,25.80
2018-12-31T07:19:43.450Z,30.60
2018-12-31T07:20:43.426Z,32.00
2018-12-31T07:21:43.414Z,31.10
2018-12-31T07:22:43.405Z,30.00
2018-12-31T07:23:43.381Z,28.70
2018-12-31T07:24:43.397Z,30.10
2018-12-31T07:25:43.393Z,30.30
2018-12-31T07:26:43.347Z,29.60
2018-12-31T07:27:43.349Z,28.30
2018-12-31T07:28:43.333Z,29.60
2018-12-31T07:29:43.341Z,23.80
2018-12-31T07:30:43.307Z,31.70
2018-12-31T07:31:43.296Z,29.80
2018-12-31T07:32:43.285Z,29.20
2018-12-31T07:33:43.275Z,28.90
2018-12-31T07:34:43.283Z,26.80
2018-12-31T07:35:43.255Z,30.10
2018-12-31T07:36:43.248Z,28.20
2018-12-31T07:37:43.227Z,30.30
2018-12-31T07:38:43.217Z,35.60
2018-12-31T07:39:43.243Z,35.50
2018-12-31T07:40:43.214Z,33.40
2018-12-31T07:41:43.186Z,29.90
2018-12-31T07:42:43.172Z,29.00
2018-12-31T07:43:43.186Z,31.10
2018-12-31T07:44:43.156Z,36.60
2018-12-31T07:45:43.169Z,30.90
2018-12-31T07:46:43.133Z,31.70
2018-12-31T07:47:43.116Z,32.60
2018-12-31T07:48:43.113Z,26.70
2018-12-31T07:49:43.093Z,29.90
2018-12-31T07:50:43.103Z,33.20
2018-12-31T07:51:43.091Z,37.80
2018-12-31T07:52:43.065Z,32.00
2018-12-31T07:53:43.055Z,32.30
2018-12-31T07:54:43.051Z,31.80
2018-12-31T07:55:43.048Z,31.60
2018-12-31T07:56:43.022Z,35.60
2018-12-31T07:57:43.011Z,31.70
2018-12-31T07:58:42.997Z,35.40
2018-12-31T07:59:42.984Z,33.70
2018-12-31T08:00:42.991Z,33.60
2018-12-31T08:01:42.960Z,38.00
2018-12-31T08:02:42.954Z,36.40
2018-12-31T08:03:42.946Z,34.40
2018-12-31T08:04:42.934Z,34.20
2018-12-31T08:05:42.942Z,28.70
2018-12-31T08:06:42.894Z,34.00
2018-12-31T08:07:42.898Z,33.30
2018-12-31T08:08:42.888Z,33.20
2018-12-31T08:09:42.880Z,33.60
2018-12-31T08:10:42.894Z,36.90
2018-12-31T08:11:42.853Z,30.70
2018-12-31T08:12:42.830Z,34.40
2018-12-31T08:13:42.822Z,29.20
2018-12-31T08:14:42.818Z,33.60
2018-12-31T08:15:42.830Z,29.90
2018-12-31T08:16:42.841Z,33.80
2018-12-31T08:17:42.781Z,35.00
2018-12-31T08:18:42.774Z,38.20
2018-12-31T08:19:42.767Z,33.30
2018-12-31T08:20:42.769Z,39.70
2018-12-31T08:21:42.738Z,35.30
2018-12-31T08:22:42.728Z,34.40
2018-12-31T08:23:42.708Z,36.30
2018-12-31T08:24:42.710Z,35.70
2018-12-31T08:25:42.720Z,35.50
2018-12-31T08:26:42.695Z,39.70
2018-12-31T08:27:42.665Z,33.00
2018-12-31T08:28:42.682Z,32.00
2018-12-31T08:29:42.644Z,36.10
2018-12-31T08:30:42.631Z,42.60
2018-12-31T08:31:42.636Z,31.10
2018-12-31T08:32:42.626Z,35.80
2018-12-31T08:33:42.598Z,34.70
2018-12-31T08:34:42.592Z,40.00
2018-12-31T08:35:42.568Z,32.80
2018-12-31T08:36:42.580Z,30.20
2018-12-31T08:37:42.559Z,33.50
2018-12-31T08:38:42.566Z,36.90
2018-12-31T08:39:42.530Z,36.90
2018-12-31T08:40:42.527Z,31.60
2018-12-31T08:41:42.526Z,31.50
2018-12-31T08:42:42.496Z,28.90
2018-12-31T08:43:42.495Z,39.40
2018-12-31T08:44:42.472Z,35.20
2018-12-31T08:45:42.472Z,28.70
2018-12-31T08:46:42.470Z,33.90
2018-12-31T08:47:42.447Z,32.80
2018-12-31T08:48:42.437Z,31.40
2018-12-31T08:49:42.431Z,32.90
2018-12-31T08:50:42.407Z,32.70
2018-12-31T08:51:42.418Z,32.00
2018-12-31T08:52:42.383Z,34.30
2018-12-31T08:53:42.376Z,30.40
2018-12-31T08:54:42.388Z,30.50
2018-12-31T08:55:42.405Z,28.70
2018-12-31T08:56:42.384Z,32.50
2018-12-31T08:57:42.345Z,35.60
2018-12-31T08:58:42.321Z,30.30
2018-12-31T08:59:42.308Z,32.20
2018-12-31T09:00:42.313Z,29.80
2018-12-31T09:01:42.302Z,33.70
2018-12-31T09:02:42.280Z,33.50
2018-12-31T09:03:42.267Z,30.70
2018-12-31T09:04:42.272Z,33.70
2018-12-31T09:05:42.239Z,30.40
2018-12-31T09:06:42.259Z,29.30
2018-12-31T09:07:42.223Z,31.30
2018-12-31T09:08:42.219Z,28.70
2018-12-31T09:09:42.207Z,33.30
2018-12-31T09:10:42.186Z,30.30
2018-12-31T09:11:42.216Z,28.90
2018-12-31T09:12:42.179Z,28.00
2018-12-31T09:13:42.185Z,30.00
2018-12-31T09:14:42.192Z,30.20
2018-12-31T09:15:42.157Z,31.20
2018-12-31T09:16:42.149Z,25.30
2018-12-31T09:17:42.155Z,24.60
2018-12-31T09:18:42.135Z,28.40
2018-12-31T09:19:42.157Z,28.90
2018-12-31T09:20:42.106Z,24.70
2018-12-31T09:21:42.140Z,26.90
2018-12-31T09:22:42.061Z,28.70
2018-12-31T09:23:42.038Z,29.80
2018-12-31T09:24:44.762Z,32.50
2018-12-31T09:25:42.020Z,29.00
2018-12-31T09:26:42.009Z,28.50
2018-12-31T09:27:42.010Z,31.50
2018-12-31T09:28:41.989Z,34.70
2018-12-31T09:29:41.958Z,30.20
2018-12-31T09:30:41.971Z,33.20
2018-12-31T09:31:41.959Z,29.70
2018-12-31T09:32:41.957Z,25.90
2018-12-31T09:33:41.928Z,29.70
2018-12-31T09:34:41.928Z,29.30
2018-12-31T09:35:41.900Z,33.30
2018-12-31T09:36:41.894Z,27.60
2018-12-31T09:37:41.903Z,29.60
2018-12-31T09:38:41.876Z,31.10
2018-12-31T09:39:41.858Z,30.40
2018-12-31T09:40:41.846Z,24.50
2018-12-31T09:41:41.830Z,27.60
2018-12-31T09:42:41.847Z,25.00
2018-12-31T09:43:41.831Z,30.40
2018-12-31T09:44:41.804Z,31.00
2018-12-31T09:45:41.808Z,26.60
2018-12-31T09:46:41.789Z,27.60
2018-12-31T09:47:41.794Z,32.70
2018-12-31T09:48:41.779Z,27.10
2018-12-31T09:49:41.747Z,26.30
2018-12-31T09:50:41.742Z,34.00
2018-12-31T09:51:41.738Z,30.60
2018-12-31T09:52:41.732Z,28.60
2018-12-31T09:53:41.754Z,31.50
2018-12-31T09:54:41.702Z,30.10
2018-12-31T09:55:41.709Z,30.80
2018-12-31T09:56:41.683Z,29.10
2018-12-31T09:57:41.661Z,27.50
2018-12-31T09:58:41.685Z,29.40
2018-12-31T09:59:41.640Z,31.20
2018-12-31T10:00:41.638Z,31.90
2018-12-31T10:01:41.615Z,27.30
2018-12-31T10:02:41.611Z,28.60
2018-12-31T10:03:41.644Z,28.00
2018-12-31T10:04:41.584Z,27.50
2018-12-31T10:05:41.575Z,31.10
2018-12-31T10:06:41.563Z,27.00
2018-12-31T10:07:41.574Z,32.00
2018-12-31T10:08:49.037Z,30.60
2018-12-31T10:09:42.523Z,24.40
2018-12-31T10:10:41.517Z,26.30
2018-12-31T10:11:41.513Z,27.20
2018-12-31T10:12:41.497Z,24.30
2018-12-31T10:13:41.507Z,25.60
2018-12-31T10:14:41.471Z,24.60
2018-12-31T10:15:41.467Z,28.70
2018-12-31T10:16:41.446Z,27.50
2018-12-31T10:17:41.435Z,26.40
2018-12-31T10:18:41.434Z,24.60
2018-12-31T10:19:41.417Z,22.30
2018-12-31T10:20:41.407Z,28.00
2018-12-31T10:21:41.387Z,25.80
2018-12-31T10:22:41.377Z,24.20
2018-12-31T10:23:41.397Z,26.70
2018-12-31T10:24:41.345Z,23.20
2018-12-31T10:25:41.348Z,22.60
2018-12-31T10:26:41.337Z,27.60
2018-12-31T10:27:41.341Z,22.20
2018-12-31T10:28:41.307Z,25.10
2018-12-31T10:29:41.336Z,25.20
2018-12-31T10:30:41.286Z,29.10
2018-12-31T10:31:41.273Z,25.50
2018-12-31T10:32:41.268Z,28.70
2018-12-31T10:33:41.254Z,24.80
2018-12-31T10:34:41.255Z,23.50
2018-12-31T10:35:41.247Z,25.60
2018-12-31T10:36:41.225Z,20.80
2018-12-31T10:37:41.208Z,23.20
2018-12-31T10:38:41.199Z,23.00
2018-12-31T10:39:41.220Z,21.50
2018-12-31T10:40:41.180Z,23.00
2018-12-31T10:41:41.165Z,23.40
2018-12-31T10:42:41.153Z,23.80
2018-12-31T10:43:41.157Z,23.50
2018-12-31T10:44:41.144Z,23.00
2018-12-31T10:45:41.126Z,23.40
2018-12-31T10:46:41.116Z,20.30
2018-12-31T10:47:41.101Z,24.50
2018-12-31T10:48:41.072Z,28.40
2018-12-31T10:49:41.090Z,24.20
2018-12-31T10:50:41.079Z,22.30
2018-12-31T10:51:41.065Z,21.10
2018-12-31T10:52:41.033Z,24.80
2018-12-31T10:53:41.024Z,21.20
2018-12-31T10:54:41.043Z,24.90
2018-12-31T10:55:41.011Z,23.40
2018-12-31T10:56:40.987Z,21.20
2018-12-31T10:57:41.001Z,23.40
2018-12-31T10:58:40.962Z,22.10
2018-12-31T10:59:40.960Z,25.40
2018-12-31T11:00:40.976Z,23.50
2018-12-31T11:01:40.936Z,21.20
2018-12-31T11:02:40.929Z,24.90
2018-12-31T11:03:42.044Z,22.70
2018-12-31T11:04:40.910Z,20.60
2018-12-31T11:05:40.925Z,23.10
2018-12-31T11:06:40.882Z,21.80
2018-12-31T11:07:40.906Z,25.60
2018-12-31T11:08:40.859Z,26.70
2018-12-31T11:09:40.851Z,21.60
2018-12-31T11:10:40.893Z,23.60
2018-12-31T11:11:40.842Z,23.80
2018-12-31T11:12:40.821Z,24.90
2018-12-31T11:13:40.813Z,23.50
2018-12-31T11:14:40.845Z,23.80
2018-12-31T11:15:40.814Z,25.30
2018-12-31T11:16:40.769Z,24.70
2018-12-31T11:17:40.769Z,23.30
2018-12-31T11:18:40.753Z,21.90
2018-12-31T11:19:40.750Z,20.60
2018-12-31T11:20:40.751Z,24.80
2018-12-31T11:21:40.723Z,19.20
2018-12-31T11:22:40.707Z,23.10
2018-12-31T11:23:40.694Z,20.50
2018-12-31T11:24:40.683Z,20.00
2018-12-31T11:25:40.670Z,25.60
2018-12-31T11:26:40.663Z,21.60
2018-12-31T11:27:40.671Z,20.40
2018-12-31T11:28:40.646Z,22.40
2018-12-31T11:29:40.622Z,22.60
2018-12-31T11:30:40.614Z,19.40
2018-12-31T11:31:40.621Z,19.00
2018-12-31T11:32:40.646Z,23.10
2018-12-31T11:33:40.691Z,18.30
2018-12-31T11:34:40.575Z,21.60
2018-12-31T11:35:40.557Z,19.50
2018-12-31T11:36:40.579Z,18.90
2018-12-31T11:37:40.534Z,21.40
2018-12-31T11:38:40.527Z,21.10
2018-12-31T11:39:40.511Z,17.40
2018-12-31T11:40:40.525Z,21.60
2018-12-31T11:41:40.502Z,22.10
2018-12-31T11:42:40.531Z,17.20
2018-12-31T11:43:40.491Z,22.70
2018-12-31T11:44:40.457Z,23.20
2018-12-31T11:45:40.450Z,21.40
2018-12-31T11:46:40.460Z,19.40
2018-12-31T11:47:40.422Z,21.60
2018-12-31T11:48:40.426Z,22.10
2018-12-31T11:49:40.402Z,25.20
2018-12-31T11:50:40.382Z,21.50
2018-12-31T11:51:40.396Z,22.40
2018-12-31T11:52:40.441Z,21.60
2018-12-31T11:53:40.372Z,18.40
2018-12-31T11:54:40.370Z,18.30
2018-12-31T11:55:40.332Z,20.50
2018-12-31T11:56:40.342Z,22.40
2018-12-31T11:57:40.315Z,22.60
2018-12-31T11:58:40.302Z,18.40
2018-12-31T11:59:40.289Z,17.70
2018-12-31T12:00:40.291Z,17.60
2018-12-31T12:01:40.322Z,22.70
2018-12-31T12:02:40.248Z,22.70
2018-12-31T12:03:40.255Z,23.40
2018-12-31T12:04:40.237Z,26.10
2018-12-31T12:05:40.218Z,22.60
2018-12-31T12:06:40.230Z,22.70
2018-12-31T12:07:40.214Z,21.30
2018-12-31T12:08:40.181Z,17.60
2018-12-31T12:09:40.184Z,16.80
2018-12-31T12:10:40.161Z,19.30
2018-12-31T12:11:40.172Z,19.70
2018-12-31T12:12:40.137Z,19.30
2018-12-31T12:13:40.132Z,21.20
2018-12-31T12:14:40.132Z,18.40
2018-12-31T12:15:40.116Z,19.10
2018-12-31T12:16:40.125Z,20.00
2018-12-31T12:17:40.082Z,21.40
2018-12-31T12:18:40.077Z,21.10
2018-12-31T12:19:40.074Z,20.30
2018-12-31T12:20:40.061Z,22.50
2018-12-31T12:21:40.066Z,22.80
2018-12-31T12:22:40.042Z,22.90
2018-12-31T12:23:40.016Z,25.30
2018-12-31T12:24:40.016Z,19.80
2018-12-31T12:25:39.998Z,23.90
2018-12-31T12:26:40.008Z,18.50
2018-12-31T12:27:39.968Z,22.20
2018-12-31T12:28:39.981Z,18.60
2018-12-31T12:29:39.950Z,18.00
2018-12-31T12:30:39.954Z,22.40
2018-12-31T12:31:39.943Z,20.50
2018-12-31T12:32:40.003Z,21.00
2018-12-31T12:33:39.903Z,25.10
2018-12-31T12:34:39.911Z,21.00
2018-12-31T12:35:39.888Z,22.80
2018-12-31T12:36:39.890Z,28.20
2018-12-31T12:37:39.872Z,22.20
2018-12-31T12:38:39.853Z,18.90
2018-12-31T12:39:39.830Z,20.10
2018-12-31T12:40:39.825Z,19.60
2018-12-31T12:41:39.830Z,18.00
2018-12-31T12:42:39.828Z,18.80
2018-12-31T12:43:39.794Z,20.20
2018-12-31T12:44:39.779Z,17.70
2018-12-31T12:45:39.771Z,20.50
2018-12-31T12:46:39.761Z,19.90
2018-12-31T12:47:39.760Z,19.60
2018-12-31T12:48:39.743Z,21.50
2018-12-31T12:49:39.728Z,16.40
2018-12-31T12:50:39.731Z,19.00
2018-12-31T12:51:39.709Z,18.50
2018-12-31T12:52:39.717Z,18.70